Strona główna
METAR-TAF:

METAR-TAF

Lotnisko :

Port lotniczy Singapur-Seletar

Singapur, Singapur

Szerokość geograficzna: 01-25-08N, Długość geograficzna: 103-51-57E, wysokość: 11 m

Aktualna obserwacja pogody

Raport powstał 15 minut temu, godzina 23:00 UTC
Wiatr 2 kt z kierunków zmiennych
Temperatura 27°C
Wilgotność 84%
Ciśnienie 1010 hPa
Widzialność: 8000 m
Mało chmury na wysokości 1600 ft
Przerywane chmury na wysokości 30000 ft

METAR: WSSL 102300Z VRB02KT 8000 FEW016 BKN300 27/24 Q1010

czas: 07:15 (23:15 UTC)

Prognoza

Raport powstał 6 godziny i 15 minut temu, godzina 17:00 UTC
Prognoza ważna od 10 godzina 18 UTC do 12 godzina 00 UTC
Wiatr 7 kt od północ
Widzialność 10 km lub więcej
Mało chmury na wysokości 1500 ft
Rozproszone chmury na wysokości 2000 ft

TAF: WSSL 101700Z 1018/1200 01007KT 9999 FEW015 SCT020

Obserwacja i prognoza pogody dla ponad 4000 lotnisk (raport METAR i TAF).

Dostępne stacje oznaczono żółtymi i czerwonymi punktami na mapie.

Najedź kursorem aby zobaczyć nazwę stacji.

Kliknij aby zobaczyć obserwacje i prognozy pogody.

Aby zmienić mapę: kliknij na zielony przycisk z czarnym krzyżykiem, aby powiększyć; na zielony przycisk z myślnikiem, aby pomniejszyć; na zielone strzałki, aby przejść do map sąsiednich.


METAR-TAF: